Nobitz, Germany

2:11 PM CEST on August 21, 2014 (GMT +0200)
Nobitz | Change Station
CLOSE
Current Station
Airport
Location: Altenburg Nobitz,
Elevation: 640 ft
Nearby Weather Stations

Elev 640 ft 50.98 °N, 12.51 °E | Updated 21 minutes ago

Clear
Clear
64 °F
Feels Like 64 °F
N
8
Wind Variable Wind from SW

Today
High -- | Low -- °F
--% Chance of Precip.
Yesterday
High -- | Low -- °F
Precip. -- in
6:05 AM 8:19 PM
Waning Crescent, 14% visible
Pressure 30.01 in
Visibility -9999.0 miles
Clouds
Dew Point 43 °F
Humidity 45%
Rainfall 0.00 in
Snow Depth Not available.
UV Not available.
Pollen Not available.
Air Quality Not available.
Flu Activity Not available.
METAR EDAC 211150Z 23007KT 200V300 CAVOK 18/06 Q1016

More Conditions Fewer Conditions

Pressure 30.01 in
Visibility -9999.0 miles
Clouds
Dew Point 43 °F
Humidity 45%
Rainfall 0.00 in
Snow Depth Not available.
UV Not available.
Pollen Not available.
Air Quality Not available.
Flu Activity Not available.
METAR EDAC 211150Z 23007KT 200V300 CAVOK 18/06 Q1016

More Conditions Fewer Conditions

10-Day Weather Forecast

Almanac

Astronomy

Aug. 21, 2014 Rise Set
Actual Time 6:05 AM CEST 8:19 PM CEST
Civil Twilight 5:29 AM CEST 8:55 PM CEST
Nautical Twilight 4:44 AM CEST 9:40 PM CEST
Astronomical Twilight 3:52 AM CEST 10:31 PM CEST
Moon 2:10 AM CEST 5:46 PM CEST
Length of Visible Light 15h 25m
Length of Day
14h 13m
Tomorrow will be 3m 38s shorter.
Waning Crescent, 14% of the Moon is Illuminated
Today
Waning Crescent
Aug 25
New
Sep 2
First Quarter
Sep 8
Full
Sep 15
Last Quarter

Yesterday's Extremes

Country Highs Country Lows

Community

WunderPhotos

Upload Photos

1,745,885 photos uploaded!

Nearby

Snow Depth

Not available.

Earthquake Activity

City Distance Mag. Time & Date
No recent earthquake activity has been reported nearby.
Minimum magnitude displayed is 2.5.

Coastal Water Temperatures

Place Temperature
No Stations Reporting

Nearby Weather Stations